Terminal Aerodrome Forecast
Issued by NWS

Current Version | Previous Version | Graphics & Text | Print | Product List | Glossary On
Versions: 1 2 3 4 5 6 7 8 9 10 11 12 13 14 15 16 17 18 19 20 21 22 23
055
FTUS41 KRLX 250808 AAA
TAFCKB
TAF AMD
KCKB 250808Z 2508/2606 32005KT P6SM SCT035
     FM251000 VRB03KT 2SM BR BKN001
     FM251300 VRB03KT 5SM BR BKN005
     FM251400 32003KT 5SM BR BKN025
     FM251800 35003KT P6SM SCT030=

USA.gov is the U.S. government's official web portal to all federal, state and local government web resources and services.